Terminal Aerodrome Forecast
Issued by NWS

Home | Current Version | Previous Version | Text Only | Print | Product List | Glossary On
Versions: 1 2 3 4 5 6 7 8 9 10 11 12 13 14 15
000
FTUS42 KRAH 181140
TAFRWI
TAF
KRWI 181140Z 1812/1912 03010KT P6SM SCT040 BKN200
      TEMPO 1812/1814 BKN012 OVC200
     FM190800 04009KT 6SM -RA SCT025 BKN045 OVC070
      AMD NOT SKED=

USA.gov is the U.S. government's official web portal to all federal, state and local government web resources and services.